createdAt,value
2022-12-03T00:05:36.119Z,8.60
2022-12-03T00:20:37.581Z,8.93
2022-12-03T00:35:39.029Z,8.67
2022-12-03T00:50:40.494Z,9.47
2022-12-03T01:05:41.952Z,7.97
2022-12-03T01:20:43.404Z,7.47
2022-12-03T01:35:44.873Z,6.73
2022-12-03T01:50:46.316Z,7.73
2022-12-03T02:05:47.787Z,7.07
2022-12-03T02:20:49.244Z,7.27
2022-12-03T02:35:50.713Z,7.93
2022-12-03T02:50:52.206Z,7.97
2022-12-03T03:05:53.677Z,7.23
2022-12-03T03:20:55.141Z,7.60
2022-12-03T03:35:56.601Z,6.93
2022-12-03T03:50:58.047Z,6.80
2022-12-03T04:05:59.494Z,7.57
2022-12-03T04:21:00.953Z,7.20
2022-12-03T04:36:02.458Z,7.10
2022-12-03T04:51:03.968Z,7.17
2022-12-03T05:06:05.417Z,7.37
2022-12-03T05:21:06.872Z,8.53
2022-12-03T05:36:08.335Z,8.17
2022-12-03T05:51:09.783Z,7.57
2022-12-03T06:06:11.245Z,7.40
2022-12-03T06:21:12.705Z,7.20
2022-12-03T06:36:15.843Z,7.80
2022-12-03T06:51:20.256Z,7.40
2022-12-03T07:06:21.756Z,7.77
2022-12-03T07:21:23.218Z,9.47
2022-12-03T07:36:24.691Z,10.37
2022-12-03T07:51:30.627Z,8.97
2022-12-03T08:06:33.699Z,9.27
2022-12-03T08:21:35.160Z,8.93
2022-12-03T08:36:36.603Z,9.13
2022-12-03T08:51:38.048Z,10.03
2022-12-03T09:06:39.485Z,9.93
2022-12-03T09:21:40.933Z,10.53
2022-12-03T09:36:42.393Z,9.03
2022-12-03T09:51:43.852Z,8.87
2022-12-03T10:06:46.198Z,10.27
2022-12-03T10:21:47.993Z,10.27
2022-12-03T10:36:49.484Z,7.80
2022-12-03T10:51:50.923Z,9.23
2022-12-03T11:06:52.396Z,8.17
2022-12-03T11:21:53.968Z,8.77
2022-12-03T11:37:01.867Z,11.07
2022-12-03T11:52:03.609Z,10.90
2022-12-03T12:07:05.159Z,11.27
2022-12-03T12:22:06.626Z,8.97
2022-12-03T12:37:08.075Z,9.70
2022-12-03T12:52:24.598Z,10.47
2022-12-03T13:07:26.105Z,10.63
2022-12-03T13:22:27.687Z,10.13
2022-12-03T13:37:29.134Z,9.47
2022-12-03T13:52:30.593Z,10.63
2022-12-03T14:07:32.058Z,11.13
2022-12-03T14:22:33.563Z,9.03
2022-12-03T14:37:35.014Z,8.73
2022-12-03T14:52:36.490Z,10.07
2022-12-03T15:07:38.038Z,10.33
2022-12-03T15:22:39.505Z,9.77
2022-12-03T15:37:40.964Z,12.23
2022-12-03T15:52:42.409Z,11.23
2022-12-03T16:07:43.903Z,12.23
2022-12-03T16:22:45.425Z,9.47
2022-12-03T16:37:46.875Z,9.73
2022-12-03T16:52:48.327Z,18.70
2022-12-03T17:07:49.909Z,11.53
2022-12-03T17:22:51.415Z,10.93
2022-12-03T17:37:52.885Z,12.03
2022-12-03T17:52:54.341Z,13.67
2022-12-03T18:07:55.841Z,15.23
2022-12-03T18:22:57.334Z,14.07
2022-12-03T18:37:58.816Z,15.47
2022-12-03T18:53:00.262Z,15.50
2022-12-03T19:08:01.783Z,19.00
2022-12-03T19:23:03.259Z,16.13
2022-12-03T19:38:04.719Z,14.20
2022-12-03T19:53:06.165Z,19.77
2022-12-03T20:08:07.738Z,15.97
2022-12-03T20:23:09.233Z,15.90
2022-12-03T20:38:10.694Z,16.30
2022-12-03T20:53:25.227Z,14.57
2022-12-03T21:08:40.608Z,15.03
2022-12-03T21:23:43.220Z,15.13
2022-12-03T21:38:44.728Z,15.70
2022-12-03T21:53:46.174Z,14.73
2022-12-03T22:08:47.643Z,15.80
2022-12-03T22:23:49.087Z,16.83
2022-12-03T22:38:50.561Z,16.40
2022-12-03T22:53:52.033Z,16.63
2022-12-03T23:08:53.473Z,18.33
2022-12-03T23:23:54.920Z,16.87
2022-12-03T23:38:56.359Z,17.13
2022-12-03T23:53:57.807Z,16.60
